createdAt,value
2016-11-28T00:00:53.282Z,0
2016-11-28T00:02:04.264Z,0
2016-11-28T00:03:15.246Z,0
2016-11-28T00:04:26.228Z,0
2016-11-28T00:05:37.404Z,0
2016-11-28T00:06:48.387Z,0
2016-11-28T00:07:59.371Z,0
2016-11-28T00:09:10.354Z,0
2016-11-28T00:10:21.386Z,0
2016-11-28T00:11:32.379Z,0
2016-11-28T00:12:43.368Z,0
2016-11-28T00:13:54.342Z,0
2016-11-28T00:15:05.724Z,0
2016-11-28T00:16:16.704Z,0
2016-11-28T00:17:27.885Z,0
2016-11-28T00:18:38.868Z,0
2016-11-28T00:19:50.048Z,0
2016-11-28T00:21:01.276Z,0
2016-11-28T00:22:12.265Z,0
2016-11-28T00:23:23.442Z,0
2016-11-28T00:24:34.423Z,0
2016-11-28T00:25:45.399Z,0
2016-11-28T00:26:56.387Z,0
2016-11-28T00:28:07.366Z,0
2016-11-28T00:29:18.559Z,0
2016-11-28T00:30:29.549Z,0
2016-11-28T00:31:40.733Z,0
2016-11-28T00:32:51.715Z,0
2016-11-28T00:34:02.733Z,0
2016-11-28T00:35:13.721Z,0
2016-11-28T00:36:24.705Z,0
2016-11-28T00:37:35.702Z,0
2016-11-28T00:38:46.888Z,0
2016-11-28T00:39:58.073Z,0
2016-11-28T00:41:09.307Z,0
2016-11-28T00:42:20.317Z,0
2016-11-28T00:43:31.300Z,0
2016-11-28T00:44:42.284Z,0
2016-11-28T00:45:53.264Z,0
2016-11-28T00:47:04.290Z,0
2016-11-28T00:48:15.275Z,0
2016-11-28T00:49:26.668Z,0
2016-11-28T00:50:37.655Z,0
2016-11-28T00:51:48.639Z,0
2016-11-28T00:52:59.672Z,0
2016-11-28T00:54:10.648Z,0
2016-11-28T00:55:21.628Z,0
2016-11-28T00:56:32.610Z,0
2016-11-28T00:57:43.591Z,0
2016-11-28T00:58:54.623Z,0
2016-11-28T01:00:05.602Z,0
2016-11-28T01:01:16.578Z,0
2016-11-28T01:02:27.570Z,0
2016-11-28T01:03:38.556Z,0
2016-11-28T01:04:49.615Z,0
2016-11-28T01:06:00.821Z,0
2016-11-28T01:07:11.811Z,0
2016-11-28T01:08:22.799Z,0
2016-11-28T01:09:33.979Z,0
2016-11-28T01:10:44.958Z,0
2016-11-28T01:11:55.936Z,0
2016-11-28T01:13:06.925Z,0
2016-11-28T01:14:17.941Z,0
2016-11-28T01:15:28.928Z,0
2016-11-28T01:16:39.916Z,0
2016-11-28T01:17:50.931Z,0
2016-11-28T01:19:01.933Z,0
2016-11-28T01:20:12.961Z,0
2016-11-28T01:21:23.945Z,0
2016-11-28T01:22:34.929Z,0
2016-11-28T01:23:45.913Z,0
2016-11-28T01:24:56.893Z,0
2016-11-28T01:26:07.953Z,0
2016-11-28T01:27:19.137Z,0
2016-11-28T01:28:30.120Z,0
2016-11-28T01:29:41.103Z,0
2016-11-28T01:30:52.080Z,0
2016-11-28T01:32:03.111Z,0
2016-11-28T01:33:14.090Z,0
2016-11-28T01:34:25.270Z,0
2016-11-28T01:35:36.261Z,0
2016-11-28T01:36:47.243Z,0
2016-11-28T01:37:58.480Z,0
2016-11-28T01:39:09.460Z,0
2016-11-28T01:40:20.639Z,0
2016-11-28T01:41:31.620Z,0
2016-11-28T01:42:42.801Z,0
2016-11-28T01:43:54.045Z,0
2016-11-28T01:45:05.024Z,0
2016-11-28T01:46:16.002Z,0
2016-11-28T01:47:26.986Z,0
2016-11-28T01:48:37.972Z,0
2016-11-28T01:49:49.003Z,0
2016-11-28T01:50:59.973Z,0
2016-11-28T01:52:10.981Z,0
2016-11-28T01:53:21.969Z,0
2016-11-28T01:54:32.954Z,0
2016-11-28T01:55:43.939Z,0
2016-11-28T01:56:55.125Z,0
2016-11-28T01:58:06.103Z,0
2016-11-28T01:59:17.295Z,0
2016-11-28T02:00:28.266Z,0
2016-11-28T02:01:39.253Z,0
2016-11-28T02:02:50.237Z,0
2016-11-28T02:04:01.250Z,0
2016-11-28T02:05:12.230Z,0
2016-11-28T02:06:23.222Z,0
2016-11-28T02:07:34.193Z,0
2016-11-28T02:08:45.166Z,0
2016-11-28T02:09:56.153Z,0
2016-11-28T02:11:07.155Z,0
2016-11-28T02:12:18.139Z,0
2016-11-28T02:13:29.118Z,0
2016-11-28T02:14:40.104Z,0
2016-11-28T02:15:51.290Z,0
2016-11-28T02:17:02.494Z,0
2016-11-28T02:18:13.469Z,0
2016-11-28T02:19:24.647Z,0
2016-11-28T02:20:35.631Z,0
2016-11-28T02:21:46.611Z,0
2016-11-28T02:22:57.596Z,0
2016-11-28T02:24:08.572Z,0
2016-11-28T02:25:19.574Z,0
2016-11-28T02:26:30.758Z,0
2016-11-28T02:27:41.734Z,0
2016-11-28T02:28:52.714Z,0
2016-11-28T02:30:03.700Z,0
2016-11-28T02:31:14.874Z,0
2016-11-28T02:32:25.864Z,0
2016-11-28T02:33:37.050Z,0
2016-11-28T02:34:48.032Z,0
2016-11-28T02:35:59.008Z,0
2016-11-28T02:37:09.987Z,0
2016-11-28T02:38:20.974Z,0
2016-11-28T02:39:32.152Z,0
2016-11-28T02:40:43.129Z,0
2016-11-28T02:41:54.116Z,0
2016-11-28T02:43:05.100Z,0
2016-11-28T02:44:16.289Z,0
2016-11-28T02:45:27.269Z,0
2016-11-28T02:46:38.461Z,0
2016-11-28T02:47:49.448Z,0
2016-11-28T02:49:00.627Z,0
2016-11-28T02:50:11.657Z,0
2016-11-28T02:51:22.885Z,0
2016-11-28T02:52:33.869Z,0
2016-11-28T02:53:44.877Z,0
2016-11-28T02:54:56.051Z,0
2016-11-28T02:56:07.042Z,0
2016-11-28T02:57:18.028Z,0
2016-11-28T02:58:29.005Z,0
2016-11-28T02:59:40.023Z,0
2016-11-28T03:00:51.000Z,0
2016-11-28T03:02:01.985Z,0
2016-11-28T03:03:12.968Z,0
2016-11-28T03:04:23.946Z,0
2016-11-28T03:05:34.937Z,0
2016-11-28T03:06:45.912Z,0
2016-11-28T03:07:56.897Z,0
2016-11-28T03:09:07.883Z,0
2016-11-28T03:10:18.868Z,0
2016-11-28T03:11:29.856Z,0
2016-11-28T03:12:41.037Z,0
2016-11-28T03:13:52.015Z,0
2016-11-28T03:15:03.003Z,0
2016-11-28T03:16:13.987Z,0
2016-11-28T03:17:25.001Z,0
2016-11-28T03:18:36.012Z,0
2016-11-28T03:19:46.998Z,0
2016-11-28T03:20:57.989Z,0
2016-11-28T03:22:08.976Z,0
2016-11-28T03:23:19.948Z,0
2016-11-28T03:24:31.133Z,0
2016-11-28T03:25:42.126Z,0
2016-11-28T03:26:53.109Z,0
2016-11-28T03:28:04.084Z,0
2016-11-28T03:29:15.069Z,0
2016-11-28T03:30:26.103Z,0
2016-11-28T03:31:37.285Z,0
2016-11-28T03:32:48.267Z,0
2016-11-28T03:33:59.242Z,0
2016-11-28T03:35:10.431Z,0
2016-11-28T03:36:21.414Z,0
2016-11-28T03:37:32.392Z,0
2016-11-28T03:38:43.380Z,0
2016-11-28T03:39:54.362Z,0
2016-11-28T03:41:05.548Z,0
2016-11-28T03:42:16.524Z,0
2016-11-28T03:43:27.713Z,0
2016-11-28T03:44:38.715Z,0
2016-11-28T03:45:49.723Z,0
2016-11-28T03:47:00.725Z,0
2016-11-28T03:48:11.717Z,0
2016-11-28T03:49:22.700Z,0
2016-11-28T03:50:33.685Z,0
2016-11-28T03:51:44.896Z,0
2016-11-28T03:52:56.278Z,0
2016-11-28T03:54:07.258Z,0
2016-11-28T03:55:18.448Z,0
2016-11-28T03:56:29.426Z,0
2016-11-28T03:57:40.422Z,0
2016-11-28T03:58:51.401Z,0
2016-11-28T04:00:02.630Z,0
2016-11-28T04:01:13.616Z,0
2016-11-28T04:02:24.620Z,0
2016-11-28T04:03:35.629Z,0
2016-11-28T04:04:46.812Z,0
2016-11-28T04:05:57.997Z,0
2016-11-28T04:07:08.978Z,0
2016-11-28T04:08:20.165Z,0
2016-11-28T04:09:31.156Z,0
2016-11-28T04:10:42.141Z,0
2016-11-28T04:11:53.324Z,0
2016-11-28T04:13:04.305Z,0
2016-11-28T04:14:15.303Z,0
2016-11-28T04:15:26.289Z,0
2016-11-28T04:16:37.276Z,0
2016-11-28T04:17:48.459Z,0
2016-11-28T04:18:59.443Z,0
2016-11-28T04:20:10.427Z,0
2016-11-28T04:21:21.414Z,0
2016-11-28T04:22:32.399Z,0
2016-11-28T04:23:43.377Z,0
2016-11-28T04:24:54.361Z,0
2016-11-28T04:26:05.336Z,0
2016-11-28T04:27:16.322Z,0
2016-11-28T04:28:27.301Z,0
2016-11-28T04:29:38.285Z,0
2016-11-28T04:30:49.471Z,0
2016-11-28T04:32:00.483Z,0
2016-11-28T04:33:11.470Z,0
2016-11-28T04:34:22.456Z,0
2016-11-28T04:35:33.433Z,0
2016-11-28T04:36:44.413Z,0
2016-11-28T04:37:55.589Z,0
2016-11-28T04:39:06.776Z,0
2016-11-28T04:40:17.761Z,0
2016-11-28T04:41:28.746Z,0
2016-11-28T04:42:39.729Z,0
2016-11-28T04:43:50.710Z,0
2016-11-28T04:45:01.689Z,0
2016-11-28T04:46:12.675Z,0
2016-11-28T04:47:23.857Z,0
2016-11-28T04:48:34.859Z,0
2016-11-28T04:49:45.847Z,0
2016-11-28T04:50:57.036Z,0
2016-11-28T04:52:08.019Z,0
2016-11-28T04:53:19.010Z,0
2016-11-28T04:54:29.989Z,0
2016-11-28T04:55:40.966Z,0
2016-11-28T04:56:51.948Z,0
2016-11-28T04:58:02.932Z,0
2016-11-28T04:59:13.911Z,0
2016-11-28T05:00:24.893Z,0
2016-11-28T05:01:35.877Z,0
2016-11-28T05:02:46.922Z,0
2016-11-28T05:03:58.118Z,0
2016-11-28T05:05:09.157Z,0
2016-11-28T05:06:20.346Z,0
2016-11-28T05:07:31.333Z,0
2016-11-28T05:08:42.321Z,0
2016-11-28T05:09:53.305Z,0
2016-11-28T05:11:04.291Z,0
2016-11-28T05:12:15.267Z,0
2016-11-28T05:13:26.246Z,0
2016-11-28T05:14:37.429Z,0
2016-11-28T05:15:48.613Z,0
2016-11-28T05:16:59.597Z,0
2016-11-28T05:18:10.583Z,0
2016-11-28T05:19:21.569Z,0
2016-11-28T05:20:32.554Z,0
2016-11-28T05:21:43.531Z,0
2016-11-28T05:22:54.517Z,0
2016-11-28T05:24:05.691Z,0
2016-11-28T05:25:16.680Z,0
2016-11-28T05:26:27.664Z,0
2016-11-28T05:27:38.641Z,0
2016-11-28T05:28:49.623Z,0
2016-11-28T05:30:00.603Z,0
2016-11-28T05:31:11.584Z,0
2016-11-28T05:32:22.765Z,0
2016-11-28T05:33:33.735Z,0
2016-11-28T05:34:44.717Z,0
2016-11-28T05:35:55.696Z,0
2016-11-28T05:37:06.676Z,0
2016-11-28T05:38:17.664Z,0
2016-11-28T05:39:28.647Z,0
2016-11-28T05:40:39.855Z,0
2016-11-28T05:41:50.836Z,0
2016-11-28T05:43:01.817Z,0
2016-11-28T05:44:12.799Z,0
2016-11-28T05:45:24.072Z,0
2016-11-28T05:46:35.047Z,0
2016-11-28T05:47:46.038Z,0
2016-11-28T05:48:57.220Z,0
2016-11-28T05:50:08.202Z,0
2016-11-28T05:51:19.183Z,0
2016-11-28T05:52:30.214Z,0
2016-11-28T05:53:41.199Z,0
2016-11-28T05:54:52.384Z,0
2016-11-28T05:56:03.377Z,0
2016-11-28T05:57:14.582Z,0
2016-11-28T05:58:25.559Z,0
2016-11-28T05:59:36.538Z,0
2016-11-28T06:00:47.516Z,0
2016-11-28T06:01:58.491Z,0
2016-11-28T06:03:09.475Z,0
2016-11-28T06:04:20.451Z,0
2016-11-28T06:05:31.428Z,0
2016-11-28T06:06:42.815Z,0
2016-11-28T06:07:53.816Z,0
2016-11-28T06:09:04.797Z,0
2016-11-28T06:10:15.773Z,0
2016-11-28T06:11:26.754Z,0
2016-11-28T06:12:37.739Z,0
2016-11-28T06:13:48.713Z,0
2016-11-28T06:14:59.694Z,0
2016-11-28T06:16:10.717Z,0
2016-11-28T06:17:21.907Z,0
2016-11-28T06:18:32.891Z,0
2016-11-28T06:19:44.069Z,0
2016-11-28T06:20:55.276Z,0
2016-11-28T06:22:06.271Z,0
2016-11-28T06:23:17.255Z,0
2016-11-28T06:24:28.234Z,0
2016-11-28T06:25:39.469Z,0
2016-11-28T06:26:50.459Z,4
2016-11-28T06:28:01.443Z,0
2016-11-28T06:29:12.419Z,0
2016-11-28T06:30:23.415Z,4
2016-11-28T06:31:34.391Z,0
2016-11-28T06:32:45.372Z,4
2016-11-28T06:33:56.380Z,4
2016-11-28T06:35:07.363Z,8
2016-11-28T06:36:18.355Z,4
2016-11-28T06:37:29.330Z,8
2016-11-28T06:38:40.320Z,8
2016-11-28T06:39:51.309Z,12
2016-11-28T06:41:02.546Z,12
2016-11-28T06:42:13.725Z,16
2016-11-28T06:43:24.699Z,16
2016-11-28T06:44:35.678Z,24
2016-11-28T06:45:46.653Z,28
2016-11-28T06:46:57.643Z,36
2016-11-28T06:48:08.613Z,40
2016-11-28T06:49:19.600Z,48
2016-11-28T06:50:30.635Z,56
2016-11-28T06:51:41.821Z,64
2016-11-28T06:52:52.795Z,76
2016-11-28T06:54:03.779Z,88
2016-11-28T06:55:14.751Z,100
2016-11-28T06:56:25.733Z,112
2016-11-28T06:57:36.919Z,132
2016-11-28T06:58:47.901Z,152
2016-11-28T06:59:58.883Z,168
2016-11-28T07:01:09.863Z,188
2016-11-28T07:02:20.843Z,212
2016-11-28T07:03:31.820Z,236
2016-11-28T07:04:43.001Z,260
2016-11-28T07:05:54.190Z,288
2016-11-28T07:07:05.166Z,316
2016-11-28T07:08:16.161Z,348
2016-11-28T07:09:27.134Z,380
2016-11-28T07:10:38.115Z,416
2016-11-28T07:11:49.093Z,452
2016-11-28T07:13:00.086Z,488
2016-11-28T07:14:11.065Z,528
2016-11-28T07:15:22.045Z,572
2016-11-28T07:16:33.228Z,612
2016-11-28T07:17:44.207Z,656
2016-11-28T07:18:55.178Z,704
2016-11-28T07:20:06.162Z,748
2016-11-28T07:21:17.149Z,804
2016-11-28T07:22:28.335Z,856
2016-11-28T07:23:39.311Z,912
2016-11-28T07:24:50.305Z,968
2016-11-28T07:26:01.286Z,1028
2016-11-28T07:27:12.258Z,1092
2016-11-28T07:28:23.240Z,1152
2016-11-28T07:29:34.219Z,1220
2016-11-28T07:30:45.201Z,1284
2016-11-28T07:31:56.412Z,1352
2016-11-28T07:33:07.589Z,1420
2016-11-28T07:34:18.569Z,1492
2016-11-28T07:35:29.549Z,1564
2016-11-28T07:36:40.734Z,1632
2016-11-28T07:37:51.712Z,1736
2016-11-28T07:39:02.718Z,1816
2016-11-28T07:40:13.705Z,1852
2016-11-28T07:41:24.691Z,1908
2016-11-28T07:42:35.702Z,1988
2016-11-28T07:43:46.682Z,2088
2016-11-28T07:44:57.690Z,2188
2016-11-28T07:46:08.673Z,2304
2016-11-28T07:47:19.856Z,2384
2016-11-28T07:48:30.836Z,2424
2016-11-28T07:49:41.813Z,2568
2016-11-28T07:50:52.999Z,3120
2016-11-28T07:52:03.978Z,4588
2016-11-28T07:53:14.969Z,4476
2016-11-28T07:54:25.951Z,3204
2016-11-28T07:55:36.937Z,3360
2016-11-28T07:56:47.917Z,4436
2016-11-28T07:57:58.888Z,4424
2016-11-28T07:59:09.874Z,3328
2016-11-28T08:00:21.102Z,3196
2016-11-28T08:01:32.091Z,5040
2016-11-28T08:02:43.056Z,11000
2016-11-28T08:03:54.045Z,13952
2016-11-28T08:05:05.227Z,11680
2016-11-28T08:06:16.208Z,7328
2016-11-28T08:07:27.191Z,4860
2016-11-28T08:08:38.170Z,5336
2016-11-28T08:09:49.153Z,5312
2016-11-28T08:11:00.138Z,5496
2016-11-28T08:12:11.117Z,6204
2016-11-28T08:13:22.093Z,5904
2016-11-28T08:14:33.077Z,6256
2016-11-28T08:15:44.059Z,7360
2016-11-28T08:16:55.045Z,8040
2016-11-28T08:18:06.064Z,9372
2016-11-28T08:19:17.047Z,10644
2016-11-28T08:20:28.040Z,9396
2016-11-28T08:21:39.020Z,11124
2016-11-28T08:22:50.000Z,14656
2016-11-28T08:24:00.991Z,15552
2016-11-28T08:25:11.970Z,14848
2016-11-28T08:26:22.958Z,11168
2016-11-28T08:27:33.948Z,5544
2016-11-28T08:28:45.137Z,9816
2016-11-28T08:29:56.351Z,18592
2016-11-28T08:31:07.538Z,26752
2016-11-28T08:32:18.525Z,31808
2016-11-28T08:33:29.706Z,34976
2016-11-28T08:34:40.890Z,35200
2016-11-28T08:35:51.881Z,33376
2016-11-28T08:37:02.866Z,32576
2016-11-28T08:38:13.848Z,36160
2016-11-28T08:39:24.831Z,35424
2016-11-28T08:40:35.801Z,27456
2016-11-28T08:41:46.808Z,25920
2016-11-28T08:42:57.794Z,28416
2016-11-28T08:44:08.780Z,23040
2016-11-28T08:45:19.770Z,22720
2016-11-28T08:46:30.965Z,25952
2016-11-28T08:47:41.996Z,33184
2016-11-28T08:48:53.184Z,33568
2016-11-28T08:50:04.190Z,35328
2016-11-28T08:51:15.391Z,34592
2016-11-28T08:52:26.582Z,38624
2016-11-28T08:53:37.568Z,39040
2016-11-28T08:54:48.559Z,33216
2016-11-28T08:55:59.748Z,29120
2016-11-28T08:57:10.734Z,30592
2016-11-28T08:58:21.732Z,36288
2016-11-28T08:59:32.748Z,42048
2016-11-28T09:00:43.739Z,50464
2016-11-28T09:01:54.727Z,59264
2016-11-28T09:03:05.754Z,63616
2016-11-28T09:04:16.942Z,64224
2016-11-28T09:05:27.972Z,65344
2016-11-28T09:06:38.959Z,67072
2016-11-28T09:07:50.142Z,67616
2016-11-28T09:09:01.130Z,67968
2016-11-28T09:10:12.131Z,66880
2016-11-28T09:11:23.129Z,67104
2016-11-28T09:12:34.315Z,68288
2016-11-28T09:13:45.512Z,67136
2016-11-28T09:14:56.506Z,67776
2016-11-28T09:16:07.487Z,69376
2016-11-28T09:17:18.479Z,68480
2016-11-28T09:18:29.674Z,67936
2016-11-28T09:19:40.869Z,68064
2016-11-28T09:20:51.862Z,68096
2016-11-28T09:22:02.860Z,69152
2016-11-28T09:23:13.845Z,69376
2016-11-28T09:24:24.847Z,68160
2016-11-28T09:25:35.848Z,68960
2016-11-28T09:26:46.840Z,70816
2016-11-28T09:27:57.838Z,71488
2016-11-28T09:29:08.841Z,73024
2016-11-28T09:30:19.839Z,73152
2016-11-28T09:31:30.833Z,73440
2016-11-28T09:32:41.828Z,73312
2016-11-28T09:33:52.833Z,72256
2016-11-28T09:35:04.054Z,68672
2016-11-28T09:36:15.057Z,69152
2016-11-28T09:37:26.060Z,72128
2016-11-28T09:38:37.056Z,67040
2016-11-28T09:39:48.058Z,64704
2016-11-28T09:40:59.113Z,67904
2016-11-28T09:42:10.317Z,68480
2016-11-28T09:43:21.317Z,69472
2016-11-28T09:44:32.520Z,66944
2016-11-28T09:45:43.518Z,63648
2016-11-28T09:46:54.516Z,64960
2016-11-28T09:48:05.524Z,65344
2016-11-28T09:49:16.519Z,61824
2016-11-28T09:50:27.571Z,59552
2016-11-28T09:51:38.563Z,60896
2016-11-28T09:52:49.762Z,59712
2016-11-28T09:54:00.965Z,59360
2016-11-28T09:55:12.180Z,61376
2016-11-28T09:56:23.415Z,62656
2016-11-28T09:57:34.415Z,61088
2016-11-28T09:58:45.417Z,61504
2016-11-28T09:59:56.421Z,62464
2016-11-28T10:01:07.421Z,62144
2016-11-28T10:02:18.425Z,61536
2016-11-28T10:03:29.423Z,59968
2016-11-28T10:04:40.433Z,60448
2016-11-28T10:05:51.436Z,60160
2016-11-28T10:07:02.633Z,55552
2016-11-28T10:08:13.853Z,57504
2016-11-28T10:09:24.853Z,60608
2016-11-28T10:10:35.854Z,59904
2016-11-28T10:11:46.855Z,59904
2016-11-28T10:12:57.884Z,58432
2016-11-28T10:14:08.875Z,59744
2016-11-28T10:15:20.088Z,62240
2016-11-28T10:16:31.090Z,62624
2016-11-28T10:17:42.084Z,63168
2016-11-28T10:18:53.091Z,64224
2016-11-28T10:20:04.083Z,58464
2016-11-28T10:21:15.089Z,58240
2016-11-28T10:22:26.290Z,58528
2016-11-28T10:23:37.498Z,56992
2016-11-28T10:24:48.511Z,55584
2016-11-28T10:25:59.714Z,56800
2016-11-28T10:27:10.713Z,56928
2016-11-28T10:28:21.720Z,55232
2016-11-28T10:29:32.719Z,55136
2016-11-28T10:30:43.722Z,51104
2016-11-28T10:31:54.925Z,49152
2016-11-28T10:33:05.921Z,51488
2016-11-28T10:34:16.925Z,48256
2016-11-28T10:35:28.131Z,48064
2016-11-28T10:36:39.132Z,50272
2016-11-28T10:37:50.126Z,50400
2016-11-28T10:39:01.331Z,49856
2016-11-28T10:40:12.529Z,48416
2016-11-28T10:41:23.553Z,49664
2016-11-28T10:42:34.552Z,49280
2016-11-28T10:43:45.556Z,49344
2016-11-28T10:44:56.555Z,49120
2016-11-28T10:46:07.762Z,50048
2016-11-28T10:47:18.763Z,50272
2016-11-28T10:48:29.766Z,49600
2016-11-28T10:49:40.766Z,49728
2016-11-28T10:50:52.168Z,49088
2016-11-28T10:52:03.167Z,45088
2016-11-28T10:53:14.170Z,43808
2016-11-28T10:54:25.169Z,33216
2016-11-28T10:55:36.377Z,34112
2016-11-28T10:56:47.377Z,47936
2016-11-28T10:57:58.369Z,48288
2016-11-28T10:59:09.367Z,47936
2016-11-28T11:00:20.366Z,52864
2016-11-28T11:01:31.358Z,53024
2016-11-28T11:02:42.553Z,42080
2016-11-28T11:04:08.868Z,37248
2016-11-28T11:05:19.873Z,35936
2016-11-28T11:06:30.884Z,45088
2016-11-28T11:07:41.910Z,43456
2016-11-28T11:08:52.905Z,40224
2016-11-28T11:10:03.909Z,45088
2016-11-28T11:11:14.949Z,38272
2016-11-28T11:12:25.957Z,29728
2016-11-28T11:13:37.162Z,32064
2016-11-28T11:14:48.162Z,17280
2016-11-28T11:15:59.163Z,19552
2016-11-28T11:17:10.163Z,34080
2016-11-28T11:18:21.163Z,29888
2016-11-28T11:19:32.650Z,25664
2016-11-28T11:20:43.658Z,40576
2016-11-28T11:21:54.853Z,36512
2016-11-28T11:23:06.052Z,34784
2016-11-28T11:24:17.055Z,37568
2016-11-28T11:25:28.048Z,28896
2016-11-28T11:26:39.250Z,27872
2016-11-28T11:27:50.449Z,37216
2016-11-28T11:29:01.443Z,36672
2016-11-28T11:30:12.433Z,27040
2016-11-28T11:31:23.431Z,21600
2016-11-28T11:32:34.470Z,20288
2016-11-28T11:33:45.491Z,20704
2016-11-28T11:34:56.477Z,24320
2016-11-28T11:36:07.471Z,36032
2016-11-28T11:37:18.465Z,40416
2016-11-28T11:38:29.449Z,37344
2016-11-28T11:39:40.442Z,28512
2016-11-28T11:40:51.439Z,25568
2016-11-28T11:42:02.426Z,20320
2016-11-28T11:43:13.415Z,24224
2016-11-28T11:44:24.401Z,29344
2016-11-28T11:45:35.387Z,25344
2016-11-28T11:46:46.385Z,21504
2016-11-28T11:47:57.578Z,20352
2016-11-28T11:49:08.773Z,25984
2016-11-28T11:50:19.962Z,29216
2016-11-28T11:51:30.960Z,27872
2016-11-28T11:52:41.953Z,29184
2016-11-28T11:53:52.949Z,30496
2016-11-28T11:55:03.942Z,28960
2016-11-28T11:56:14.964Z,20992
2016-11-28T11:57:25.954Z,9996
2016-11-28T11:58:36.947Z,4320
2016-11-28T11:59:47.978Z,4256
2016-11-28T12:00:59.016Z,6660
2016-11-28T12:02:10.220Z,19648
2016-11-28T12:03:21.207Z,28160
2016-11-28T12:04:32.195Z,24576
2016-11-28T12:05:43.185Z,16376
2016-11-28T12:06:54.170Z,17184
2016-11-28T12:08:05.351Z,17408
2016-11-28T12:09:16.349Z,18240
2016-11-28T12:10:27.339Z,13352
2016-11-28T12:11:38.323Z,11012
2016-11-28T12:12:49.308Z,12468
2016-11-28T12:14:00.295Z,7976
2016-11-28T12:15:11.308Z,10000
2016-11-28T12:16:22.489Z,10684
2016-11-28T12:17:33.498Z,5956
2016-11-28T12:18:44.494Z,7796
2016-11-28T12:19:55.480Z,13916
2016-11-28T12:21:06.467Z,22784
2016-11-28T12:22:17.661Z,27840
2016-11-28T12:23:28.652Z,29792
2016-11-28T12:24:39.638Z,30496
2016-11-28T12:25:50.646Z,27232
2016-11-28T12:27:01.630Z,23584
2016-11-28T12:28:12.616Z,26176
2016-11-28T12:29:23.605Z,22112
2016-11-28T12:30:39.057Z,20512
2016-11-28T12:31:50.046Z,18624
2016-11-28T12:33:01.063Z,21120
2016-11-28T12:34:12.247Z,20800
2016-11-28T12:35:23.236Z,20352
2016-11-28T12:36:34.227Z,17600
2016-11-28T12:37:45.221Z,17888
2016-11-28T12:38:56.218Z,16800
2016-11-28T12:40:07.217Z,16000
2016-11-28T12:41:18.208Z,16736
2016-11-28T12:42:29.194Z,17280
2016-11-28T12:43:40.178Z,16800
2016-11-28T12:44:51.370Z,13368
2016-11-28T12:46:02.359Z,15360
2016-11-28T12:47:13.340Z,14336
2016-11-28T12:48:24.332Z,15168
2016-11-28T12:49:35.327Z,14108
2016-11-28T12:50:46.319Z,9788
2016-11-28T12:51:57.311Z,9384
2016-11-28T12:53:08.297Z,9792
2016-11-28T12:54:19.283Z,9348
2016-11-28T12:55:30.278Z,10108
2016-11-28T12:56:41.269Z,9288
2016-11-28T12:57:52.258Z,6444
2016-11-28T12:59:03.251Z,5276
2016-11-28T13:00:14.243Z,7368
2016-11-28T13:01:25.228Z,9492
2016-11-28T13:02:36.222Z,9068
2016-11-28T13:03:47.211Z,9184
2016-11-28T13:04:58.194Z,9648
2016-11-28T13:06:09.180Z,9824
2016-11-28T13:07:20.167Z,10332
2016-11-28T13:08:31.150Z,11092
2016-11-28T13:09:42.130Z,9696
2016-11-28T13:10:53.114Z,7572
2016-11-28T13:12:04.105Z,7408
2016-11-28T13:13:15.089Z,8716
2016-11-28T13:14:26.073Z,8364
2016-11-28T13:15:37.061Z,7028
2016-11-28T13:16:48.056Z,4904
2016-11-28T13:17:59.043Z,5852
2016-11-28T13:19:10.032Z,4432
2016-11-28T13:20:21.011Z,5492
2016-11-28T13:21:32.207Z,5156
2016-11-28T13:22:43.203Z,6504
2016-11-28T13:23:54.186Z,6020
2016-11-28T13:25:05.217Z,5260
2016-11-28T13:26:16.205Z,5732
2016-11-28T13:27:27.190Z,6844
2016-11-28T13:28:38.172Z,7448
2016-11-28T13:29:49.156Z,6348
2016-11-28T13:31:00.128Z,5344
2016-11-28T13:32:11.113Z,4416
2016-11-28T13:33:22.327Z,4628
2016-11-28T13:34:33.307Z,3780
2016-11-28T13:35:44.297Z,5144
2016-11-28T13:36:55.287Z,6264
2016-11-28T13:38:06.275Z,5904
2016-11-28T13:39:17.603Z,5356
2016-11-28T13:40:31.550Z,4816
2016-11-28T13:41:42.539Z,3460
2016-11-28T13:42:53.526Z,2840
2016-11-28T13:44:04.542Z,2812
2016-11-28T13:45:15.536Z,2788
2016-11-28T13:46:26.524Z,2768
2016-11-28T13:47:37.523Z,3004
2016-11-28T13:48:48.520Z,3472
2016-11-28T13:49:59.507Z,3552
2016-11-28T13:51:10.496Z,3532
2016-11-28T13:52:21.475Z,3452
2016-11-28T13:53:32.468Z,3456
2016-11-28T13:54:43.678Z,3360
2016-11-28T13:55:54.663Z,3164
2016-11-28T13:57:05.886Z,2816
2016-11-28T13:58:16.872Z,2788
2016-11-28T13:59:27.860Z,3140
2016-11-28T14:00:38.844Z,3136
2016-11-28T14:01:49.831Z,3108
2016-11-28T14:03:01.015Z,2816
2016-11-28T14:04:12.005Z,2484
2016-11-28T14:05:22.985Z,2432
2016-11-28T14:06:33.971Z,2412
2016-11-28T14:07:44.956Z,2392
2016-11-28T14:08:55.946Z,2392
2016-11-28T14:10:06.941Z,2364
2016-11-28T14:11:17.957Z,2328
2016-11-28T14:12:28.940Z,2296
2016-11-28T14:13:39.919Z,2264
2016-11-28T14:14:50.914Z,2240
2016-11-28T14:16:01.892Z,2216
2016-11-28T14:17:13.079Z,2192
2016-11-28T14:18:24.061Z,2160
2016-11-28T14:19:35.045Z,2132
2016-11-28T14:20:46.032Z,2104
2016-11-28T14:21:57.219Z,2076
2016-11-28T14:23:08.217Z,2044
2016-11-28T14:24:19.206Z,2016
2016-11-28T14:25:30.192Z,1988
2016-11-28T14:26:41.180Z,1956
2016-11-28T14:27:52.158Z,1928
2016-11-28T14:29:06.649Z,1896
2016-11-28T14:30:17.637Z,1864
2016-11-28T14:31:28.626Z,1832
2016-11-28T14:32:40.150Z,1800
2016-11-28T14:33:51.145Z,1764
2016-11-28T14:35:02.181Z,1732
2016-11-28T14:36:13.362Z,1700
2016-11-28T14:37:24.363Z,1668
2016-11-28T14:38:35.346Z,1632
2016-11-28T14:39:46.336Z,1596
2016-11-28T14:40:57.317Z,1564
2016-11-28T14:42:08.300Z,1528
2016-11-28T14:43:19.485Z,1488
2016-11-28T14:44:30.462Z,1452
2016-11-28T14:45:41.439Z,1412
2016-11-28T14:46:52.620Z,1380
2016-11-28T14:48:03.602Z,1340
2016-11-28T14:49:14.582Z,1304
2016-11-28T14:50:25.560Z,1268
2016-11-28T14:51:36.539Z,1224
2016-11-28T14:52:47.552Z,1184
2016-11-28T14:53:58.734Z,1144
2016-11-28T14:55:09.722Z,1104
2016-11-28T14:56:20.713Z,1064
2016-11-28T14:57:31.704Z,1024
2016-11-28T14:58:42.680Z,984
2016-11-28T14:59:53.660Z,944
2016-11-28T15:01:04.638Z,900
2016-11-28T15:02:15.628Z,860
2016-11-28T15:03:26.616Z,824
2016-11-28T15:04:37.605Z,780
2016-11-28T15:05:48.584Z,740
2016-11-28T15:06:59.568Z,692
2016-11-28T15:08:10.549Z,648
2016-11-28T15:09:21.538Z,612
2016-11-28T15:10:32.564Z,576
2016-11-28T15:11:43.546Z,544
2016-11-28T15:12:54.535Z,512
2016-11-28T15:14:05.524Z,476
2016-11-28T15:15:16.503Z,444
2016-11-28T15:16:27.484Z,412
2016-11-28T15:17:38.465Z,384
2016-11-28T15:18:49.650Z,356
2016-11-28T15:20:00.631Z,328
2016-11-28T15:21:11.621Z,300
2016-11-28T15:22:22.614Z,272
2016-11-28T15:23:33.601Z,252
2016-11-28T15:24:44.782Z,228
2016-11-28T15:25:55.764Z,204
2016-11-28T15:27:06.755Z,184
2016-11-28T15:28:17.738Z,164
2016-11-28T15:29:28.929Z,148
2016-11-28T15:30:39.913Z,128
2016-11-28T15:31:50.894Z,116
2016-11-28T15:33:01.901Z,100
2016-11-28T15:34:12.882Z,88
2016-11-28T15:35:23.926Z,76
2016-11-28T15:36:34.911Z,68
2016-11-28T15:37:46.093Z,56
2016-11-28T15:38:57.073Z,52
2016-11-28T15:40:08.053Z,44
2016-11-28T15:41:19.032Z,36
2016-11-28T15:42:30.034Z,32
2016-11-28T15:43:41.020Z,28
2016-11-28T15:44:52.008Z,20
2016-11-28T15:46:03.185Z,20
2016-11-28T15:47:14.170Z,16
2016-11-28T15:48:25.562Z,12
2016-11-28T15:49:36.553Z,12
2016-11-28T15:50:47.543Z,8
2016-11-28T15:51:58.729Z,8
2016-11-28T15:53:09.726Z,4
2016-11-28T15:54:20.705Z,4
2016-11-28T15:55:31.694Z,4
2016-11-28T15:56:42.873Z,4
2016-11-28T15:57:53.846Z,0
2016-11-28T15:59:05.027Z,4
2016-11-28T16:00:16.014Z,0
2016-11-28T16:01:26.994Z,0
2016-11-28T16:02:37.979Z,4
2016-11-28T16:03:48.959Z,0
2016-11-28T16:04:59.940Z,0
2016-11-28T16:06:10.973Z,0
2016-11-28T16:07:21.948Z,0
2016-11-28T16:08:32.938Z,0
2016-11-28T16:09:43.919Z,0
2016-11-28T16:10:55.104Z,0
2016-11-28T16:12:06.087Z,0
2016-11-28T16:13:17.267Z,0
2016-11-28T16:14:28.247Z,0
2016-11-28T16:15:39.229Z,0
2016-11-28T16:16:50.211Z,0
2016-11-28T16:18:01.189Z,0
2016-11-28T16:19:12.170Z,0
2016-11-28T16:20:23.155Z,0
2016-11-28T16:21:34.131Z,0
2016-11-28T16:22:45.113Z,0
2016-11-28T16:23:56.102Z,0
2016-11-28T16:25:07.092Z,0